This is the latest recevied weather packets stored in our database for station/object N7MLR. If no packets are shown the sender has not sent any weather packets the latest 10 day(s).
| Time | Temp. | Humidity | Pressure | Rain* | Wind** | Luminosity | Snow |
|---|---|---|---|---|---|---|---|
| 1778005296 | 26.11° C | 78% | 1008.4 hPa | 0 mm | - | 303 W/m² | - |
| 1778004993 | 26.11° C | 78% | 1008.5 hPa | 0 mm | - | 330 W/m² | - |
| 1778004691 | 26.11° C | 79% | 1008.7 hPa | 0 mm | - | 340 W/m² | - |
| 1778004386 | 25.56° C | 79% | 1008.7 hPa | 0 mm | - | 441 W/m² | - |
| 1778004084 | 26.11° C | 78% | 1008.3 hPa | 0 mm | - | 276 W/m² | - |
| 1778003780 | 26.67° C | 76% | 1008.9 hPa | 0 mm | - | 409 W/m² | - |
| 1778003476 | 25.56° C | 79% | 1009 hPa | 0 mm | - | 384 W/m² | - |
| 1778003173 | 25.56° C | 80% | 1008.8 hPa | 0 mm | - | 377 W/m² | - |
| 1778002869 | 24.44° C | 83% | 1008.9 hPa | 0 mm | - | 402 W/m² | - |
| 1778002566 | 24.44° C | 82% | 1008.8 hPa | 0 mm | - | 211 W/m² | - |
| 1778002263 | 25° C | 83% | 1008.9 hPa | 0 mm | - | 302 W/m² | - |
| 1778001960 | 24.44° C | 84% | 1008.7 hPa | 0 mm | - | 232 W/m² | - |
| 1778001657 | 23.89° C | 85% | 1008.7 hPa | 0 mm | - | 242 W/m² | - |
| 1778001351 | 23.89° C | 85% | 1008.8 hPa | 0 mm | - | 210 W/m² | - |
| 1778001049 | 23.89° C | 85% | 1009 hPa | 0 mm | - | 233 W/m² | - |
| 1778000745 | 23.89° C | 86% | 1008.9 hPa | 0 mm | - | 265 W/m² | - |
| 1778000442 | 23.89° C | 86% | 1008.8 hPa | 0 mm | - | 278 W/m² | - |
| 1778000137 | 23.33° C | 87% | 1009 hPa | 0 mm | - | 257 W/m² | - |
| 1777999833 | 23.33° C | 87% | 1009.1 hPa | 0 mm | - | 177 W/m² | - |
| 1777999529 | 23.33° C | 88% | 1009.1 hPa | 0 mm | - | 293 W/m² | - |
| 1777999227 | 22.78° C | 88% | 1009 hPa | 0 mm | - | 204 W/m² | - |
| 1777998926 | 23.33° C | 88% | 1009 hPa | 0 mm | - | 130 W/m² | - |
| 1777998622 | 22.78° C | 89% | 1008.9 hPa | 0 mm | - | 139 W/m² | - |
| 1777998315 | 22.78° C | 89% | 1008.9 hPa | 0 mm | - | 157 W/m² | - |
| 1777998012 | 22.78° C | 90% | 1008.9 hPa | 0 mm | - | 149 W/m² | - |
* Rain latest hour (hover to see other rain measurements)
** Current wind speed in m/s (hover to see current wind gust speed)